createdAt,value
2023-07-05T00:00:21.796Z,2.67
2023-07-05T00:00:58.352Z,2.00
2023-07-05T00:01:33.565Z,2.57
2023-07-05T00:02:06.098Z,2.70
2023-07-05T00:02:38.586Z,2.10
2023-07-05T00:03:11.745Z,2.17
2023-07-05T00:03:46.833Z,2.00
2023-07-05T00:04:19.290Z,2.33
2023-07-05T00:04:51.818Z,2.30
2023-07-05T00:05:24.933Z,2.30
2023-07-05T00:05:59.945Z,2.23
2023-07-05T00:06:34.961Z,2.27
2023-07-05T00:07:07.720Z,1.93
2023-07-05T00:07:40.103Z,2.00
2023-07-05T00:08:15.128Z,2.40
2023-07-05T00:08:47.697Z,2.00
2023-07-05T00:09:20.114Z,2.70
2023-07-05T00:09:52.618Z,2.40
2023-07-05T00:10:27.694Z,2.70
2023-07-05T00:11:03.688Z,2.20
2023-07-05T00:11:36.143Z,2.37
2023-07-05T00:12:11.829Z,2.10
2023-07-05T00:12:44.282Z,2.03
2023-07-05T00:13:16.729Z,2.10
2023-07-05T00:13:51.959Z,2.33
2023-07-05T00:14:24.772Z,2.60
2023-07-05T00:14:57.210Z,2.60
2023-07-05T00:15:32.638Z,2.20
2023-07-05T00:16:06.221Z,2.37
2023-07-05T00:16:38.805Z,2.17
2023-07-05T00:17:13.994Z,2.13
2023-07-05T00:17:46.584Z,2.30
2023-07-05T00:18:19.938Z,2.30
2023-07-05T00:18:55.055Z,1.90
2023-07-05T00:19:27.496Z,1.93
2023-07-05T00:20:00.324Z,2.17
2023-07-05T00:20:35.331Z,2.30
2023-07-05T00:21:10.174Z,2.17
2023-07-05T00:21:45.232Z,2.00
2023-07-05T00:22:17.632Z,2.33
2023-07-05T00:22:52.770Z,2.30
2023-07-05T00:23:25.157Z,2.07
2023-07-05T00:23:57.533Z,2.43
2023-07-05T00:24:30.103Z,2.37
2023-07-05T00:25:06.170Z,2.03
2023-07-05T00:25:38.586Z,2.40
2023-07-05T00:26:11.002Z,1.97
2023-07-05T00:26:45.998Z,2.63
2023-07-05T00:27:18.408Z,2.30
2023-07-05T00:27:50.806Z,2.10
2023-07-05T00:28:23.905Z,2.60
2023-07-05T00:28:58.904Z,1.87
2023-07-05T00:29:31.372Z,2.23
2023-07-05T00:30:04.158Z,2.40
2023-07-05T00:30:39.214Z,2.50
2023-07-05T00:31:11.684Z,2.10
2023-07-05T00:31:44.216Z,2.43
2023-07-05T00:32:16.845Z,2.07
2023-07-05T00:32:51.940Z,1.83
2023-07-05T00:33:24.562Z,2.50
2023-07-05T00:33:57.012Z,2.13
2023-07-05T00:34:29.412Z,2.17
2023-07-05T00:35:04.399Z,2.00
2023-07-05T00:35:36.836Z,2.77
2023-07-05T00:36:09.446Z,2.03
2023-07-05T00:36:47.055Z,2.10
2023-07-05T00:37:19.465Z,2.20
2023-07-05T00:37:52.431Z,2.13
2023-07-05T00:38:27.434Z,2.20
2023-07-05T00:39:01.391Z,2.20
2023-07-05T00:39:33.780Z,2.13
2023-07-05T00:40:10.588Z,2.00
2023-07-05T00:40:43.243Z,2.70
2023-07-05T00:41:15.695Z,2.20
2023-07-05T00:41:50.722Z,2.57
2023-07-05T00:42:23.172Z,2.13
2023-07-05T00:42:55.598Z,2.47
2023-07-05T00:43:30.743Z,2.57
2023-07-05T00:44:03.332Z,2.07
2023-07-05T00:44:35.935Z,2.27
2023-07-05T00:45:43.622Z,2.20
2023-07-05T00:46:18.911Z,2.27
2023-07-05T00:47:00.503Z,2.47
2023-07-05T00:47:34.614Z,2.27
2023-07-05T00:48:07.186Z,2.80
2023-07-05T00:48:45.930Z,2.57
2023-07-05T00:49:20.388Z,2.20
2023-07-05T00:49:52.943Z,2.10
2023-07-05T00:50:27.232Z,2.40
2023-07-05T00:51:04.846Z,2.27
2023-07-05T00:51:42.598Z,2.70
2023-07-05T00:52:19.106Z,2.50
2023-07-05T00:52:51.757Z,2.33
2023-07-05T00:53:27.846Z,2.20
2023-07-05T00:54:01.195Z,2.27
2023-07-05T00:54:37.291Z,2.57
2023-07-05T00:55:13.218Z,2.20
2023-07-05T00:55:49.865Z,2.40
2023-07-05T00:56:24.427Z,2.17
2023-07-05T00:57:01.944Z,2.40
2023-07-05T00:57:35.762Z,2.83
2023-07-05T00:58:08.206Z,2.00
2023-07-05T00:58:41.633Z,2.00
2023-07-05T00:59:18.760Z,2.27
2023-07-05T00:59:54.359Z,2.00
2023-07-05T01:00:26.780Z,2.47
2023-07-05T01:00:59.445Z,2.30
2023-07-05T01:01:34.959Z,2.53
2023-07-05T01:02:07.825Z,2.50
2023-07-05T01:02:42.109Z,2.30
2023-07-05T01:03:18.038Z,2.33
2023-07-05T01:03:56.243Z,2.00
2023-07-05T01:04:28.673Z,2.60
2023-07-05T01:05:02.474Z,2.50
2023-07-05T01:05:36.048Z,2.67
2023-07-05T01:06:14.149Z,1.90
2023-07-05T01:06:48.502Z,1.90
2023-07-05T01:07:23.996Z,2.30
2023-07-05T01:07:59.033Z,2.20
2023-07-05T01:08:31.488Z,2.17
2023-07-05T01:09:05.663Z,2.53
2023-07-05T01:09:41.454Z,2.50
2023-07-05T01:10:18.646Z,2.47
2023-07-05T01:11:03.609Z,2.40
2023-07-05T01:11:43.135Z,2.30
2023-07-05T01:12:19.139Z,2.60
2023-07-05T01:12:57.308Z,2.27
2023-07-05T01:13:32.161Z,2.50
2023-07-05T01:14:12.103Z,2.20
2023-07-05T01:14:49.577Z,2.30
2023-07-05T01:15:26.938Z,2.13
2023-07-05T01:16:18.354Z,2.43
2023-07-05T01:17:03.863Z,2.37
2023-07-05T01:17:43.081Z,2.50
2023-07-05T01:18:25.098Z,2.40
2023-07-05T01:19:02.791Z,2.53
2023-07-05T01:20:11.046Z,1.90
2023-07-05T01:20:51.844Z,2.00
2023-07-05T01:21:27.215Z,1.70
2023-07-05T01:22:03.768Z,2.30
2023-07-05T01:23:16.286Z,2.20
2023-07-05T01:24:05.245Z,2.00
2023-07-05T01:24:54.925Z,2.53
2023-07-05T01:26:12.191Z,2.50
2023-07-05T01:27:24.745Z,2.27
2023-07-05T01:28:11.660Z,1.90
2023-07-05T01:28:59.502Z,2.40
2023-07-05T01:29:50.695Z,2.07
2023-07-05T01:30:56.734Z,2.47
2023-07-05T01:31:51.732Z,1.57
2023-07-05T01:32:27.307Z,2.20
2023-07-05T01:33:04.531Z,2.30
2023-07-05T01:33:39.549Z,1.90
2023-07-05T01:34:18.107Z,2.43
2023-07-05T01:34:55.339Z,2.00
2023-07-05T01:35:31.188Z,2.50
2023-07-05T01:36:04.538Z,2.47
2023-07-05T01:36:39.892Z,2.20
2023-07-05T01:37:25.803Z,2.20
2023-07-05T01:37:58.734Z,2.10
2023-07-05T01:38:33.828Z,1.93
2023-07-05T01:39:06.281Z,2.10
2023-07-05T01:39:38.687Z,2.00
2023-07-05T01:40:16.556Z,2.10
2023-07-05T01:40:58.250Z,1.83
2023-07-05T01:41:30.708Z,2.13
2023-07-05T01:42:04.255Z,1.73
2023-07-05T01:42:36.672Z,2.00
2023-07-05T01:43:13.619Z,2.00
2023-07-05T01:43:47.126Z,2.20
2023-07-05T01:44:20.490Z,1.70
2023-07-05T01:44:55.509Z,1.90
2023-07-05T01:45:34.779Z,2.47
2023-07-05T01:46:24.334Z,2.20
2023-07-05T01:47:08.155Z,2.30
2023-07-05T01:47:47.662Z,2.00
2023-07-05T01:48:25.357Z,2.43
2023-07-05T01:49:10.210Z,1.87
2023-07-05T01:49:52.172Z,1.47
2023-07-05T01:50:29.065Z,2.20
2023-07-05T01:51:06.977Z,2.10
2023-07-05T01:51:46.828Z,2.10
2023-07-05T01:52:24.806Z,2.20
2023-07-05T01:53:03.570Z,2.20
2023-07-05T01:53:41.362Z,2.47
2023-07-05T01:54:16.768Z,1.97
2023-07-05T01:54:55.301Z,2.00
2023-07-05T01:55:35.559Z,2.80
2023-07-05T01:56:10.666Z,2.00
2023-07-05T01:56:50.413Z,2.30
2023-07-05T01:57:24.948Z,2.07
2023-07-05T01:58:03.306Z,2.57
2023-07-05T01:58:41.883Z,2.70
2023-07-05T01:59:16.623Z,2.10
2023-07-05T01:59:57.120Z,1.77
2023-07-05T02:00:30.250Z,2.77
2023-07-05T02:01:05.212Z,2.40
2023-07-05T02:01:43.994Z,2.60
2023-07-05T02:02:20.515Z,2.43
2023-07-05T02:02:56.550Z,2.33
2023-07-05T02:03:32.697Z,2.60
2023-07-05T02:04:07.717Z,2.63
2023-07-05T02:04:40.217Z,2.20
2023-07-05T02:05:15.982Z,2.50
2023-07-05T02:05:48.897Z,2.43
2023-07-05T02:06:22.618Z,2.97
2023-07-05T02:06:55.332Z,2.67
2023-07-05T02:07:31.320Z,2.00
2023-07-05T02:08:04.350Z,2.10
2023-07-05T02:08:39.488Z,2.43
2023-07-05T02:09:14.602Z,2.17
2023-07-05T02:09:47.314Z,2.27
2023-07-05T02:10:19.762Z,2.30
2023-07-05T02:10:56.902Z,2.33
2023-07-05T02:11:29.334Z,2.13
2023-07-05T02:12:02.025Z,2.63
2023-07-05T02:12:37.166Z,2.00
2023-07-05T02:13:12.423Z,1.80
2023-07-05T02:13:45.085Z,2.37
2023-07-05T02:14:21.762Z,2.10
2023-07-05T02:14:54.421Z,1.80
2023-07-05T02:15:27.245Z,2.37
2023-07-05T02:16:00.242Z,2.03
2023-07-05T02:16:35.277Z,2.27
2023-07-05T02:17:07.750Z,1.90
2023-07-05T02:17:42.821Z,2.17
2023-07-05T02:18:16.316Z,2.00
2023-07-05T02:18:51.379Z,2.37
2023-07-05T02:19:23.863Z,2.20
2023-07-05T02:19:56.556Z,2.40
2023-07-05T02:20:32.197Z,2.53
2023-07-05T02:21:09.601Z,2.40
2023-07-05T02:21:42.114Z,2.20
2023-07-05T02:22:17.241Z,1.87
2023-07-05T02:22:49.646Z,1.97
2023-07-05T02:23:23.258Z,1.97
2023-07-05T02:23:56.245Z,1.73
2023-07-05T02:24:31.267Z,2.23
2023-07-05T02:25:03.931Z,2.07
2023-07-05T02:25:37.888Z,2.00
2023-07-05T02:26:10.323Z,1.90
2023-07-05T02:26:45.332Z,2.17
2023-07-05T02:27:19.887Z,2.20
2023-07-05T02:27:52.309Z,1.90
2023-07-05T02:28:24.898Z,2.03
2023-07-05T02:28:59.892Z,2.10
2023-07-05T02:29:32.460Z,1.90
2023-07-05T02:30:07.387Z,2.50
2023-07-05T02:30:43.485Z,1.90
2023-07-05T02:31:15.987Z,2.03
2023-07-05T02:31:48.422Z,2.17
2023-07-05T02:32:22.225Z,2.13
2023-07-05T02:33:01.838Z,1.90
2023-07-05T02:33:35.954Z,2.17
2023-07-05T02:34:08.365Z,1.83
2023-07-05T02:34:44.806Z,2.47
2023-07-05T02:35:17.523Z,2.27
2023-07-05T02:35:49.980Z,2.10
2023-07-05T02:36:25.004Z,1.97
2023-07-05T02:36:59.589Z,2.20
2023-07-05T02:37:32.905Z,2.27
2023-07-05T02:38:05.688Z,2.00
2023-07-05T02:38:40.955Z,2.10
2023-07-05T02:39:13.942Z,2.00
2023-07-05T02:39:46.355Z,2.17
2023-07-05T02:40:21.490Z,1.80
2023-07-05T02:40:53.948Z,2.20
2023-07-05T02:41:26.399Z,2.00
2023-07-05T02:42:01.519Z,2.20
2023-07-05T02:42:33.956Z,2.20
2023-07-05T02:43:06.447Z,1.97
2023-07-05T02:43:38.845Z,2.30
2023-07-05T02:44:14.620Z,2.10
2023-07-05T02:44:48.324Z,2.00
2023-07-05T02:45:21.801Z,2.00
2023-07-05T02:45:54.513Z,2.20
2023-07-05T02:46:30.801Z,2.00
2023-07-05T02:47:03.712Z,1.90
2023-07-05T02:47:36.218Z,2.27
2023-07-05T02:48:11.264Z,1.90
2023-07-05T02:48:46.547Z,2.40
2023-07-05T02:49:18.978Z,1.90
2023-07-05T02:49:51.537Z,2.40
2023-07-05T02:50:26.540Z,2.37
2023-07-05T02:50:59.025Z,2.30
2023-07-05T02:51:33.474Z,1.93
2023-07-05T02:52:09.743Z,1.83
2023-07-05T02:52:42.265Z,1.73
2023-07-05T02:53:14.824Z,1.97
2023-07-05T02:53:49.819Z,1.93
2023-07-05T02:54:22.276Z,1.90
2023-07-05T02:54:54.725Z,1.60
2023-07-05T02:55:27.134Z,1.97
2023-07-05T02:56:02.217Z,2.03
2023-07-05T02:56:34.613Z,2.00
2023-07-05T02:57:07.440Z,1.60
2023-07-05T02:57:42.499Z,2.03
2023-07-05T02:58:14.891Z,2.20
2023-07-05T02:58:47.682Z,1.80
2023-07-05T02:59:20.999Z,2.13
2023-07-05T02:59:56.128Z,1.90
2023-07-05T03:00:30.788Z,1.80
2023-07-05T03:01:03.392Z,1.80
2023-07-05T03:01:38.459Z,2.30
2023-07-05T03:02:12.104Z,1.70
2023-07-05T03:02:45.981Z,1.90
2023-07-05T03:03:23.630Z,2.17
2023-07-05T03:03:56.046Z,1.90
2023-07-05T03:04:29.183Z,2.10
2023-07-05T03:05:08.181Z,2.00
2023-07-05T03:05:43.293Z,2.13
2023-07-05T03:06:15.784Z,2.40
2023-07-05T03:06:48.218Z,1.70
2023-07-05T03:07:23.239Z,1.93
2023-07-05T03:07:55.711Z,2.17
2023-07-05T03:08:29.537Z,2.20
2023-07-05T03:09:05.085Z,2.00
2023-07-05T03:09:37.507Z,2.30
2023-07-05T03:10:10.170Z,2.63
2023-07-05T03:10:42.611Z,1.67
2023-07-05T03:11:17.756Z,1.80
2023-07-05T03:11:50.237Z,1.80
2023-07-05T03:12:22.857Z,2.57
2023-07-05T03:12:59.214Z,1.90
2023-07-05T03:13:33.233Z,1.80
2023-07-05T03:14:05.774Z,1.80
2023-07-05T03:14:38.268Z,1.93
2023-07-05T03:15:14.075Z,2.00
2023-07-05T03:15:47.171Z,1.60
2023-07-05T03:16:19.592Z,2.10
2023-07-05T03:16:54.770Z,2.37
2023-07-05T03:17:27.424Z,2.10
2023-07-05T03:17:59.932Z,1.90
2023-07-05T03:18:37.626Z,1.80
2023-07-05T03:19:10.035Z,1.70
2023-07-05T03:19:42.534Z,2.07
2023-07-05T03:20:14.975Z,2.13
2023-07-05T03:20:50.512Z,1.97
2023-07-05T03:21:22.920Z,1.90
2023-07-05T03:21:55.311Z,1.90
2023-07-05T03:22:30.903Z,2.30
2023-07-05T03:23:03.325Z,2.03
2023-07-05T03:23:35.823Z,1.90
2023-07-05T03:24:11.105Z,1.90
2023-07-05T03:24:43.539Z,2.30
2023-07-05T03:25:16.140Z,2.43
2023-07-05T03:25:55.758Z,2.13
2023-07-05T03:26:31.202Z,2.43
2023-07-05T03:27:03.667Z,1.57
2023-07-05T03:27:36.089Z,2.20
2023-07-05T03:28:09.143Z,2.23
2023-07-05T03:28:44.179Z,1.83
2023-07-05T03:29:16.577Z,2.20
2023-07-05T03:29:49.130Z,1.73
2023-07-05T03:30:23.303Z,1.97
2023-07-05T03:31:00.823Z,1.70
2023-07-05T03:31:34.353Z,1.50
2023-07-05T03:32:08.652Z,1.77
2023-07-05T03:32:44.966Z,1.90
2023-07-05T03:33:20.198Z,1.77
2023-07-05T03:33:55.847Z,2.10
2023-07-05T03:34:28.387Z,2.23
2023-07-05T03:35:03.418Z,2.40
2023-07-05T03:35:35.836Z,2.00
2023-07-05T03:36:09.861Z,2.20
2023-07-05T03:36:44.896Z,2.73
2023-07-05T03:37:18.729Z,2.60
2023-07-05T03:37:51.133Z,2.43
2023-07-05T03:38:25.613Z,2.20
2023-07-05T03:39:01.532Z,2.50
2023-07-05T03:39:33.951Z,2.03
2023-07-05T03:40:08.244Z,1.63
2023-07-05T03:40:42.955Z,1.90
2023-07-05T03:41:19.987Z,2.23
2023-07-05T03:41:52.636Z,1.90
2023-07-05T03:42:25.032Z,1.87
2023-07-05T03:42:57.434Z,2.37
2023-07-05T03:43:34.510Z,2.10
2023-07-05T03:44:06.905Z,2.00
2023-07-05T03:44:39.318Z,2.07
2023-07-05T03:45:14.670Z,2.27
2023-07-05T03:45:47.108Z,1.90
2023-07-05T03:46:19.695Z,1.60
2023-07-05T03:46:54.909Z,1.77
2023-07-05T03:47:28.727Z,1.63
2023-07-05T03:48:01.215Z,1.70
2023-07-05T03:48:39.603Z,2.20
2023-07-05T03:49:14.839Z,1.50
2023-07-05T03:49:47.362Z,1.77
2023-07-05T03:50:22.413Z,2.30
2023-07-05T03:50:56.683Z,2.30
2023-07-05T03:51:29.101Z,1.90
2023-07-05T03:52:01.660Z,2.30
2023-07-05T03:52:36.674Z,2.47
2023-07-05T03:53:09.096Z,1.90
2023-07-05T03:53:41.699Z,2.20
2023-07-05T03:54:16.750Z,2.23
2023-07-05T03:54:49.167Z,2.20
2023-07-05T03:55:21.552Z,2.53
2023-07-05T03:55:54.285Z,2.20
2023-07-05T03:56:31.695Z,2.33
2023-07-05T03:57:04.451Z,2.17
2023-07-05T03:57:36.874Z,2.33
2023-07-05T03:58:11.944Z,1.93
2023-07-05T03:58:44.748Z,2.33
2023-07-05T03:59:17.211Z,1.90
2023-07-05T03:59:52.229Z,2.20
2023-07-05T04:00:24.742Z,2.03
2023-07-05T04:01:04.982Z,2.37
2023-07-05T04:01:40.069Z,2.37
2023-07-05T04:02:12.541Z,1.80
2023-07-05T04:02:44.996Z,2.07
2023-07-05T04:03:17.483Z,2.67
2023-07-05T04:03:55.291Z,2.07
2023-07-05T04:04:30.517Z,2.30
2023-07-05T04:05:02.928Z,2.10
2023-07-05T04:05:35.559Z,2.20
2023-07-05T04:06:10.627Z,2.33
2023-07-05T04:06:43.014Z,2.00
2023-07-05T04:07:15.422Z,2.17
2023-07-05T04:07:47.942Z,1.73
2023-07-05T04:08:23.289Z,1.87
2023-07-05T04:08:55.778Z,2.17
2023-07-05T04:09:28.941Z,2.07
2023-07-05T04:10:01.367Z,2.20
2023-07-05T04:10:36.412Z,2.50
2023-07-05T04:11:09.051Z,1.87
2023-07-05T04:11:41.479Z,2.40
2023-07-05T04:12:16.606Z,2.27
2023-07-05T04:12:49.892Z,2.23
2023-07-05T04:13:22.328Z,2.40
2023-07-05T04:13:55.877Z,2.03
2023-07-05T04:14:31.195Z,2.27
2023-07-05T04:15:04.073Z,2.40
2023-07-05T04:15:36.490Z,2.03
2023-07-05T04:16:13.020Z,2.27
2023-07-05T04:16:48.679Z,2.13
2023-07-05T04:17:21.103Z,2.40
2023-07-05T04:17:53.559Z,2.30
2023-07-05T04:18:26.092Z,2.10
2023-07-05T04:19:01.458Z,2.00
2023-07-05T04:19:36.478Z,1.80
2023-07-05T04:20:09.787Z,2.30
2023-07-05T04:20:42.184Z,1.93
2023-07-05T04:21:17.398Z,2.00
2023-07-05T04:21:49.804Z,2.00
2023-07-05T04:22:22.436Z,2.03
2023-07-05T04:22:54.848Z,1.87
2023-07-05T04:23:30.425Z,1.90
2023-07-05T04:24:02.899Z,2.07
2023-07-05T04:24:35.596Z,2.10
2023-07-05T04:25:08.843Z,1.90
2023-07-05T04:25:43.867Z,2.10
2023-07-05T04:26:18.507Z,1.97
2023-07-05T04:26:51.014Z,2.40
2023-07-05T04:27:26.049Z,2.07
2023-07-05T04:27:58.427Z,1.80
2023-07-05T04:28:31.688Z,2.10
2023-07-05T04:29:06.855Z,2.10
2023-07-05T04:29:39.294Z,2.27
2023-07-05T04:30:13.778Z,1.83
2023-07-05T04:30:46.770Z,1.70
2023-07-05T04:31:25.701Z,2.00
2023-07-05T04:31:58.253Z,1.70
2023-07-05T04:32:30.747Z,1.43
2023-07-05T04:33:03.259Z,1.83
2023-07-05T04:33:38.375Z,1.70
2023-07-05T04:34:10.799Z,1.90
2023-07-05T04:34:48.404Z,1.67
2023-07-05T04:35:21.021Z,1.53
2023-07-05T04:35:55.498Z,1.60
2023-07-05T04:36:30.927Z,1.90
2023-07-05T04:37:03.338Z,2.40
2023-07-05T04:37:38.291Z,1.60
2023-07-05T04:38:10.869Z,2.07
2023-07-05T04:38:45.932Z,1.83
2023-07-05T04:39:18.463Z,1.83
2023-07-05T04:39:51.680Z,1.90
2023-07-05T04:40:24.262Z,1.80
2023-07-05T04:41:00.339Z,1.70
2023-07-05T04:41:32.810Z,1.80
2023-07-05T04:42:05.669Z,1.67
2023-07-05T04:42:40.690Z,1.63
2023-07-05T04:43:13.111Z,1.60
2023-07-05T04:43:45.527Z,1.63
2023-07-05T04:44:20.572Z,1.40
2023-07-05T04:44:52.971Z,1.80
2023-07-05T04:45:25.406Z,1.93
2023-07-05T04:45:59.473Z,2.07
2023-07-05T04:46:34.628Z,1.97
2023-07-05T04:47:09.111Z,1.80
2023-07-05T04:47:41.790Z,2.03
2023-07-05T04:48:14.289Z,1.90
2023-07-05T04:48:49.417Z,1.60
2023-07-05T04:49:21.838Z,2.27
2023-07-05T04:49:56.954Z,1.87
2023-07-05T04:50:29.580Z,1.60
2023-07-05T04:51:06.149Z,1.60
2023-07-05T04:51:38.537Z,1.77
2023-07-05T04:52:10.980Z,1.80
2023-07-05T04:52:46.006Z,2.10
2023-07-05T04:53:18.449Z,2.33
2023-07-05T04:53:50.893Z,1.83
2023-07-05T04:54:26.014Z,1.83
2023-07-05T04:54:58.438Z,1.80
2023-07-05T04:55:30.829Z,2.40
2023-07-05T04:56:05.933Z,1.70
2023-07-05T04:56:38.447Z,1.63
2023-07-05T04:57:19.341Z,1.80
2023-07-05T04:58:06.422Z,2.23
2023-07-05T04:58:38.856Z,2.00
2023-07-05T04:59:12.283Z,2.20
2023-07-05T04:59:47.294Z,1.53
2023-07-05T05:00:20.451Z,1.90
2023-07-05T05:00:53.628Z,1.40
2023-07-05T05:01:29.721Z,1.63
2023-07-05T05:02:04.010Z,1.50
2023-07-05T05:02:36.583Z,1.30
2023-07-05T05:03:09.073Z,1.47
2023-07-05T05:03:44.363Z,1.80
2023-07-05T05:04:16.861Z,2.00
2023-07-05T05:04:49.562Z,1.50
2023-07-05T05:05:24.577Z,1.83
2023-07-05T05:05:59.824Z,1.27
2023-07-05T05:06:32.241Z,1.70
2023-07-05T05:07:05.075Z,1.93
2023-07-05T05:07:41.044Z,1.60
2023-07-05T05:08:13.826Z,1.80
2023-07-05T05:08:46.220Z,1.60
2023-07-05T05:09:21.277Z,1.90
2023-07-05T05:09:53.725Z,1.70
2023-07-05T05:10:26.150Z,1.80
2023-07-05T05:11:03.003Z,1.50
2023-07-05T05:11:35.404Z,1.67
2023-07-05T05:12:08.813Z,1.70
2023-07-05T05:12:43.839Z,1.73
2023-07-05T05:13:16.387Z,1.50
2023-07-05T05:13:51.259Z,1.90
2023-07-05T05:14:26.321Z,1.60
2023-07-05T05:14:58.724Z,1.70
2023-07-05T05:15:35.273Z,1.93
2023-07-05T05:16:10.276Z,1.97
2023-07-05T05:16:42.802Z,1.80
2023-07-05T05:17:15.392Z,1.70
2023-07-05T05:17:50.455Z,1.70
2023-07-05T05:18:23.298Z,1.67
2023-07-05T05:18:55.708Z,1.60
2023-07-05T05:19:30.737Z,1.40
2023-07-05T05:20:03.123Z,1.83
2023-07-05T05:20:39.618Z,1.53
2023-07-05T05:21:14.976Z,1.60
2023-07-05T05:21:47.392Z,1.83
2023-07-05T05:22:19.840Z,1.50
2023-07-05T05:22:52.245Z,1.50
2023-07-05T05:23:27.498Z,1.80
2023-07-05T05:23:59.915Z,1.83
2023-07-05T05:24:32.338Z,2.10
2023-07-05T05:25:08.189Z,1.67
2023-07-05T05:25:42.197Z,1.63
2023-07-05T05:26:14.606Z,1.73
2023-07-05T05:26:50.399Z,1.70
2023-07-05T05:27:22.856Z,1.77
2023-07-05T05:27:55.455Z,1.50
2023-07-05T05:28:28.336Z,1.57
2023-07-05T05:29:03.442Z,1.60
2023-07-05T05:29:35.881Z,1.90
2023-07-05T05:30:09.606Z,1.43
2023-07-05T05:30:44.953Z,2.30
2023-07-05T05:31:21.311Z,1.60
2023-07-05T05:31:53.846Z,1.50
2023-07-05T05:32:26.265Z,1.90
2023-07-05T05:32:58.821Z,1.50
2023-07-05T05:33:33.912Z,1.40
2023-07-05T05:34:06.323Z,1.93
2023-07-05T05:34:38.737Z,1.93
2023-07-05T05:35:13.867Z,1.67
2023-07-05T05:35:52.144Z,1.60
2023-07-05T05:36:28.046Z,1.80
2023-07-05T05:37:00.448Z,1.50
2023-07-05T05:37:32.845Z,1.40
2023-07-05T05:38:05.680Z,1.63
2023-07-05T05:38:40.680Z,1.77
2023-07-05T05:39:13.107Z,1.30
2023-07-05T05:39:45.541Z,1.50
2023-07-05T05:40:20.866Z,1.70
2023-07-05T05:40:53.898Z,1.63
2023-07-05T05:41:26.668Z,1.60
2023-07-05T05:42:01.710Z,1.60
2023-07-05T05:42:34.180Z,1.57
2023-07-05T05:43:06.595Z,1.53
2023-07-05T05:43:41.907Z,1.37
2023-07-05T05:44:14.361Z,1.80
2023-07-05T05:44:46.758Z,1.77
2023-07-05T05:45:19.269Z,2.20
2023-07-05T05:45:54.304Z,1.83
2023-07-05T05:46:26.854Z,1.90
2023-07-05T05:46:59.360Z,1.80
2023-07-05T05:47:31.868Z,2.00
2023-07-05T05:48:07.433Z,2.00
2023-07-05T05:48:39.964Z,1.93
2023-07-05T05:49:12.441Z,1.60
2023-07-05T05:49:47.442Z,1.43
2023-07-05T05:50:23.211Z,1.93
2023-07-05T05:50:58.236Z,1.90
2023-07-05T05:51:33.292Z,2.20
2023-07-05T05:52:06.138Z,2.20
2023-07-05T05:52:38.542Z,2.20
2023-07-05T05:53:14.212Z,1.73
2023-07-05T05:53:46.645Z,1.63
2023-07-05T05:54:19.112Z,1.87
2023-07-05T05:54:54.135Z,1.70
2023-07-05T05:55:26.581Z,1.70
2023-07-05T05:55:59.050Z,2.10
2023-07-05T05:56:34.089Z,2.13
2023-07-05T05:57:06.815Z,1.87
2023-07-05T05:57:39.229Z,1.90
2023-07-05T05:58:14.228Z,1.73
2023-07-05T05:58:46.715Z,2.10
2023-07-05T05:59:19.162Z,1.87
2023-07-05T05:59:51.605Z,2.00
2023-07-05T06:00:26.637Z,1.60
2023-07-05T06:01:00.933Z,2.07
2023-07-05T06:01:33.920Z,2.10
2023-07-05T06:02:09.862Z,1.87
2023-07-05T06:02:42.329Z,1.60
2023-07-05T06:03:15.053Z,1.60
2023-07-05T06:03:50.285Z,1.87
2023-07-05T06:04:22.752Z,1.97
2023-07-05T06:04:55.140Z,2.00
2023-07-05T06:05:30.351Z,1.97
2023-07-05T06:06:05.444Z,1.90
2023-07-05T06:06:38.063Z,2.00
2023-07-05T06:07:13.107Z,1.83
2023-07-05T06:07:45.531Z,1.97
2023-07-05T06:08:20.540Z,2.00
2023-07-05T06:08:52.973Z,2.00
2023-07-05T06:09:25.767Z,1.80
2023-07-05T06:10:00.916Z,1.90
2023-07-05T06:10:33.352Z,1.80
2023-07-05T06:11:05.912Z,1.77
2023-07-05T06:11:40.958Z,1.70
2023-07-05T06:12:13.720Z,2.17
2023-07-05T06:12:46.129Z,1.90
2023-07-05T06:13:18.543Z,1.90
2023-07-05T06:13:53.640Z,1.97
2023-07-05T06:14:28.570Z,1.97
2023-07-05T06:15:03.232Z,1.93
2023-07-05T06:15:38.315Z,2.10
2023-07-05T06:16:14.775Z,1.83
2023-07-05T06:16:47.679Z,1.53
2023-07-05T06:17:20.193Z,1.50
2023-07-05T06:17:56.394Z,1.60
2023-07-05T06:18:29.250Z,1.43
2023-07-05T06:19:01.713Z,2.07
2023-07-05T06:19:36.848Z,2.10
2023-07-05T06:20:12.774Z,1.63
2023-07-05T06:20:45.611Z,1.47
2023-07-05T06:21:23.860Z,1.60
2023-07-05T06:21:56.245Z,1.83
2023-07-05T06:22:28.702Z,1.93
2023-07-05T06:23:04.603Z,1.70
2023-07-05T06:23:37.015Z,2.30
2023-07-05T06:24:10.101Z,1.70
2023-07-05T06:24:43.726Z,1.80
2023-07-05T06:25:18.892Z,1.73
2023-07-05T06:25:54.176Z,1.80
2023-07-05T06:26:26.789Z,1.77
2023-07-05T06:26:59.377Z,1.80
2023-07-05T06:27:34.440Z,1.90
2023-07-05T06:28:06.855Z,1.87
2023-07-05T06:28:39.370Z,1.67
2023-07-05T06:29:14.416Z,1.53
2023-07-05T06:29:46.911Z,2.53
2023-07-05T06:30:19.314Z,1.87
2023-07-05T06:30:54.606Z,1.90
2023-07-05T06:31:34.609Z,1.80
2023-07-05T06:32:07.931Z,1.83
2023-07-05T06:32:42.980Z,1.80
2023-07-05T06:33:15.932Z,1.47
2023-07-05T06:33:48.388Z,2.70
2023-07-05T06:34:23.429Z,1.70
2023-07-05T06:34:55.847Z,1.90
2023-07-05T06:35:28.525Z,2.10
2023-07-05T06:36:04.144Z,1.83
2023-07-05T06:36:39.209Z,2.27
2023-07-05T06:37:11.769Z,1.50
2023-07-05T06:37:46.774Z,2.00
2023-07-05T06:38:19.249Z,1.80
2023-07-05T06:38:51.664Z,1.80
2023-07-05T06:39:24.154Z,1.80
2023-07-05T06:39:59.179Z,1.80
2023-07-05T06:40:31.659Z,2.00
2023-07-05T06:41:04.629Z,1.63
2023-07-05T06:41:39.689Z,1.70
2023-07-05T06:42:12.122Z,1.60
2023-07-05T06:42:48.260Z,1.60
2023-07-05T06:43:25.720Z,1.50
2023-07-05T06:43:58.171Z,1.67
2023-07-05T06:44:30.604Z,1.30
2023-07-05T06:45:05.669Z,1.80
2023-07-05T06:45:38.134Z,1.80
2023-07-05T06:46:10.696Z,2.23
2023-07-05T06:46:45.737Z,2.30
2023-07-05T06:47:18.185Z,1.90
2023-07-05T06:47:54.222Z,1.27
2023-07-05T06:48:26.846Z,1.63
2023-07-05T06:48:59.270Z,1.83
2023-07-05T06:49:35.298Z,1.73
2023-07-05T06:50:09.399Z,1.37
2023-07-05T06:50:41.828Z,1.57
2023-07-05T06:51:16.871Z,1.53
2023-07-05T06:51:51.924Z,1.20
2023-07-05T06:52:24.374Z,1.50
2023-07-05T06:53:22.543Z,1.60
2023-07-05T06:53:51.791Z,1.37
2023-07-05T06:54:26.912Z,1.40
2023-07-05T06:54:59.312Z,1.53
2023-07-05T06:55:33.559Z,1.33
2023-07-05T06:56:06.171Z,1.43
2023-07-05T06:56:41.210Z,1.30
2023-07-05T06:57:13.659Z,1.40
2023-07-05T06:57:46.132Z,1.40
2023-07-05T06:58:23.246Z,1.10
2023-07-05T06:58:56.020Z,1.27
2023-07-05T06:59:28.439Z,1.40
2023-07-05T07:00:03.486Z,1.50
2023-07-05T07:00:35.931Z,1.47
2023-07-05T07:01:09.971Z,1.20
2023-07-05T07:01:47.734Z,1.20
2023-07-05T07:02:20.162Z,1.20
2023-07-05T07:02:52.643Z,1.03
2023-07-05T07:03:25.056Z,1.43
2023-07-05T07:04:00.173Z,1.57
2023-07-05T07:04:32.807Z,1.50
2023-07-05T07:05:06.039Z,1.30
2023-07-05T07:05:38.460Z,1.20
2023-07-05T07:06:13.952Z,1.40
2023-07-05T07:06:46.390Z,1.30
2023-07-05T07:07:21.447Z,1.50
2023-07-05T07:07:56.464Z,1.30
2023-07-05T07:08:30.961Z,1.00
2023-07-05T07:09:05.029Z,1.20
2023-07-05T07:09:42.279Z,1.30
2023-07-05T07:10:14.697Z,1.60
2023-07-05T07:10:47.124Z,1.17
2023-07-05T07:11:22.148Z,1.97
2023-07-05T07:11:54.605Z,1.30
2023-07-05T07:12:28.232Z,1.20
2023-07-05T07:13:03.231Z,1.50
2023-07-05T07:13:38.197Z,1.30
2023-07-05T07:14:11.276Z,1.27
2023-07-05T07:14:46.392Z,0.83
2023-07-05T07:15:18.781Z,1.10
2023-07-05T07:16:00.284Z,1.10
2023-07-05T07:16:35.694Z,1.77
2023-07-05T07:17:08.316Z,1.23
2023-07-05T07:17:40.771Z,1.30
2023-07-05T07:18:15.916Z,1.27
2023-07-05T07:18:50.189Z,1.50
2023-07-05T07:19:22.593Z,1.23
2023-07-05T07:19:57.633Z,1.27
2023-07-05T07:20:30.148Z,1.40
2023-07-05T07:21:03.486Z,1.47
2023-07-05T07:21:38.631Z,0.90
2023-07-05T07:22:11.125Z,1.30
2023-07-05T07:22:46.303Z,1.27
2023-07-05T07:23:21.322Z,1.27
2023-07-05T07:23:54.102Z,1.20
2023-07-05T07:24:26.655Z,1.40
2023-07-05T07:25:03.885Z,1.30
2023-07-05T07:25:36.661Z,1.30
2023-07-05T07:26:11.435Z,1.00
2023-07-05T07:26:46.498Z,1.17
2023-07-05T07:27:19.004Z,1.20
2023-07-05T07:27:51.408Z,1.07
2023-07-05T07:28:26.408Z,0.97
2023-07-05T07:28:58.818Z,1.10
2023-07-05T07:29:36.342Z,1.17
2023-07-05T07:30:09.812Z,1.20
2023-07-05T07:30:42.501Z,1.40
2023-07-05T07:31:19.657Z,1.23
2023-07-05T07:31:52.110Z,1.30
2023-07-05T07:32:24.579Z,1.43
2023-07-05T07:32:59.642Z,1.27
2023-07-05T07:33:32.110Z,1.40
2023-07-05T07:34:06.403Z,1.47
2023-07-05T07:34:42.154Z,1.30
2023-07-05T07:35:16.548Z,1.47
2023-07-05T07:35:49.469Z,1.60
2023-07-05T07:36:25.825Z,1.30
2023-07-05T07:36:58.470Z,1.67
2023-07-05T07:37:32.584Z,1.50
2023-07-05T07:38:10.208Z,1.37
2023-07-05T07:38:43.187Z,1.50
2023-07-05T07:39:15.940Z,0.90
2023-07-05T07:39:51.107Z,1.40
2023-07-05T07:40:23.564Z,1.47
2023-07-05T07:40:56.072Z,1.13
2023-07-05T07:41:35.459Z,1.20